Gulf Bridge — A8JM5 — position and weather

sailwx.info

Track history (hours):
 
Tides and Currents Weather Stations Pressure Air Temp Water Temp Dewpoint Dewpoint Depression Visibility Wind Speed Wind Dir Waves Ship Positions

Gulf Bridge

Last reported at 2014-Nov-23 00:33 UTC. Time now 2014-Nov-24 18:05 UTC.
Position S 36°25' E 175°26'.

Length 213 m; beam 32.2 m; draft 11.5 m.

Type: Cargo ship. MMSI: 636091115.

Date/timePositionNaut miles runAvg speedWind from/ knotsBaromVisibWave heightAir tempDewpointWater temp
2014-Nov-23 00:33S 36°25' E 175°26'1412.3
2014-Nov-22 23:22S 36°30' E 175°09'1012.3
2014-Nov-22 22:33S 36°37' E 174°59'1212.2
2014-Nov-22 21:33S 36°46' E 174°49'5 5.2
2014-Nov-22 20:33S 36°51' E 174°47'0 0.0
2014-Nov-22 19:34S 36°51' E 174°47'0 0.0
2014-Nov-22 18:33S 36°51' E 174°47'0 0.0
2014-Nov-22 17:33S 36°51' E 174°47'0 0.0
2014-Nov-22 16:33S 36°51' E 174°47'0 0.0
2014-Nov-22 15:33S 36°51' E 174°47'0 0.0
2014-Nov-22 14:33S 36°51' E 174°47'0 0.0
2014-Nov-22 13:33S 36°51' E 174°47'0 0.0
2014-Nov-22 12:33S 36°51' E 174°47'0 0.0
2014-Nov-22 11:34S 36°51' E 174°47'0 0.0
2014-Nov-22 10:33S 36°51' E 174°47'0 0.0
2014-Nov-22 09:33S 36°51' E 174°47'0 0.0
2014-Nov-22 08:33S 36°51' E 174°47'0 0.0
2014-Nov-22 07:33S 36°51' E 174°47'0 0.0
2014-Nov-22 06:34S 36°51' E 174°47'0 0.0
2014-Nov-22 05:33S 36°51' E 174°47'1 1.2
2014-Nov-22 04:33S 36°50' E 174°48'10 9.8
2014-Nov-22 03:33S 36°41' E 174°53'9 9.1
2014-Nov-22 02:33S 36°35' E 175°01'3 3.2
2014-Nov-22 01:33S 36°32' E 175°03'1 1.1
2014-Nov-22 00:33S 36°33' E 175°02'6 6.4
2014-Nov-21 23:33S 36°26' E 175°02'9 9.2
2014-Nov-21 22:33S 36°18' E 174°59'  
2014-Nov-16 05:08S 39°20' E 147°48'1017.3
2014-Nov-16 04:33S 39°20' E 147°35'2017.7
2014-Nov-16 03:26S 39°19' E 147°10'3718.4
2014-Nov-16 01:25S 39°16' E 146°22'1618.4
2014-Nov-16 00:33S 39°14' E 146°02'41 0.9
2014-Nov-14 03:33S 38°48' E 145°21'1611.5
2014-Nov-14 02:12S 38°56' E 145°39'1911.7
2014-Nov-14 00:33S 39°05' E 146°00'1211.4
2014-Nov-13 23:30S 39°10' E 146°14'1110.6
2014-Nov-13 22:25S 39°09' E 146°29'1416.1
2014-Nov-13 21:33S 39°04' E 146°45'1413.7
2014-Nov-13 20:34S 39°01' E 147°02'1212.1
2014-Nov-13 19:34S 38°57' E 147°17'1312.9
2014-Nov-13 18:33S 38°53' E 147°33'1413.7
2014-Nov-13 17:33S 38°49' E 147°50'1414.2
2014-Nov-13 16:33S 38°45' E 148°07'1414.3
2014-Nov-13 15:33S 38°39' E 148°24'1313.5
2014-Nov-13 14:33S 38°32' E 148°39'1313.3
2014-Nov-13 13:33S 38°25' E 148°53'1413.6
2014-Nov-13 12:34S 38°16' E 149°06'1313.4
2014-Nov-13 11:33S 38°08' E 149°20'1313.3
2014-Nov-13 10:34S 38°00' E 149°33'1313.0
2014-Nov-13 09:34S 37°52' E 149°46'1313.4
2014-Nov-13 08:34S 37°42' E 149°57'1514.4
2014-Nov-13 07:31S 37°29' E 150°06'1414.4
2014-Nov-13 06:34S 37°15' E 150°11'  
Track history (hours):
 
Tides and Currents Weather Stations Pressure Air Temp Water Temp Dewpoint Dewpoint Depression Visibility Wind Speed Wind Dir Waves Ship Positions

Gulf Bridge

Last reported at 2014-Nov-23 00:33 UTC. Time now 2014-Nov-24 18:05 UTC.
Position S 36°25' E 175°26'.

Length 213 m; beam 32.2 m; draft 11.5 m.

Type: Cargo ship. MMSI: 636091115.

Date/timePositionNaut miles runAvg speedWind from/ knotsBaromVisibWave heightAir tempDewpointWater temp
2014-Nov-23 00:33S 36°25' E 175°26'1412.3
2014-Nov-22 23:22S 36°30' E 175°09'1012.3
2014-Nov-22 22:33S 36°37' E 174°59'1212.2
2014-Nov-22 21:33S 36°46' E 174°49'5 5.2
2014-Nov-22 20:33S 36°51' E 174°47'0 0.0
2014-Nov-22 19:34S 36°51' E 174°47'0 0.0
2014-Nov-22 18:33S 36°51' E 174°47'0 0.0
2014-Nov-22 17:33S 36°51' E 174°47'0 0.0
2014-Nov-22 16:33S 36°51' E 174°47'0 0.0
2014-Nov-22 15:33S 36°51' E 174°47'0 0.0
2014-Nov-22 14:33S 36°51' E 174°47'0 0.0
2014-Nov-22 13:33S 36°51' E 174°47'0 0.0
2014-Nov-22 12:33S 36°51' E 174°47'0 0.0
2014-Nov-22 11:34S 36°51' E 174°47'0 0.0
2014-Nov-22 10:33S 36°51' E 174°47'0 0.0
2014-Nov-22 09:33S 36°51' E 174°47'0 0.0
2014-Nov-22 08:33S 36°51' E 174°47'0 0.0
2014-Nov-22 07:33S 36°51' E 174°47'0 0.0
2014-Nov-22 06:34S 36°51' E 174°47'0 0.0
2014-Nov-22 05:33S 36°51' E 174°47'1 1.2
2014-Nov-22 04:33S 36°50' E 174°48'10 9.8
2014-Nov-22 03:33S 36°41' E 174°53'9 9.1
2014-Nov-22 02:33S 36°35' E 175°01'3 3.2
2014-Nov-22 01:33S 36°32' E 175°03'1 1.1
2014-Nov-22 00:33S 36°33' E 175°02'6 6.4
2014-Nov-21 23:33S 36°26' E 175°02'9 9.2
2014-Nov-21 22:33S 36°18' E 174°59'  
2014-Nov-16 05:08S 39°20' E 147°48'1017.3
2014-Nov-16 04:33S 39°20' E 147°35'2017.7
2014-Nov-16 03:26S 39°19' E 147°10'3718.4
2014-Nov-16 01:25S 39°16' E 146°22'1618.4
2014-Nov-16 00:33S 39°14' E 146°02'41 0.9
2014-Nov-14 03:33S 38°48' E 145°21'1611.5
2014-Nov-14 02:12S 38°56' E 145°39'1911.7
2014-Nov-14 00:33S 39°05' E 146°00'1211.4
2014-Nov-13 23:30S 39°10' E 146°14'1110.6
2014-Nov-13 22:25S 39°09' E 146°29'1416.1
2014-Nov-13 21:33S 39°04' E 146°45'1413.7
2014-Nov-13 20:34S 39°01' E 147°02'1212.1
2014-Nov-13 19:34S 38°57' E 147°17'1312.9
2014-Nov-13 18:33S 38°53' E 147°33'1413.7
2014-Nov-13 17:33S 38°49' E 147°50'1414.2
2014-Nov-13 16:33S 38°45' E 148°07'1414.3
2014-Nov-13 15:33S 38°39' E 148°24'1313.5
2014-Nov-13 14:33S 38°32' E 148°39'1313.3
2014-Nov-13 13:33S 38°25' E 148°53'1413.6
2014-Nov-13 12:34S 38°16' E 149°06'1313.4
2014-Nov-13 11:33S 38°08' E 149°20'1313.3
2014-Nov-13 10:34S 38°00' E 149°33'1313.0
2014-Nov-13 09:34S 37°52' E 149°46'1313.4
2014-Nov-13 08:34S 37°42' E 149°57'1514.4
2014-Nov-13 07:31S 37°29' E 150°06'1414.4
2014-Nov-13 06:34S 37°15' E 150°11'  

Dump ship's entire track history